Time;durP1;ratioP1;P1;durP2;ratioP2;P2;SDS_P1;SDS_P2;PMS_P1;PMS_P2;Temp;Humidity;BMP_temperature;BMP_pressure;BME280_temperature;BME280_humidity;BME280_pressure;Samples;Min_cycle;Max_cycle;Signal;HPM_P1;HPM_P2
2022/04/19 00:00:07;;;;;;;5.15;1.85;;;7.30;84.10;;;;;;5048512;28;20021;-78
2022/04/19 00:02:33;;;;;;;3.58;1.70;;;7.30;84.50;;;;;;5051664;28;20048;-79
2022/04/19 00:04:59;;;;;;;3.88;1.90;;;7.30;84.00;;;;;;5054654;28;20025;-80
2022/04/19 00:07:27;;;;;;;3.50;1.70;;;7.30;84.30;;;;;;5049391;28;20025;-79
2022/04/19 00:09:53;;;;;;;3.90;1.63;;;7.20;84.20;;;;;;5048970;28;20028;-78
2022/04/19 00:12:19;;;;;;;5.10;1.90;;;7.20;84.00;;;;;;5044982;28;20055;-78
2022/04/19 00:14:47;;;;;;;3.55;1.75;;;7.20;84.10;;;;;;5048821;28;20394;-78
2022/04/19 00:17:13;;;;;;;5.65;2.08;;;7.20;84.40;;;;;;5047254;28;20022;-78
2022/04/19 00:19:39;;;;;;;5.57;2.47;;;7.10;84.80;;;;;;5048779;28;20033;-79
2022/04/19 00:22:04;;;;;;;4.43;1.73;;;7.10;85.50;;;;;;5049898;28;20029;-79
2022/04/19 00:24:30;;;;;;;4.90;2.45;;;7.10;85.60;;;;;;5048170;28;20044;-79
2022/04/19 00:26:56;;;;;;;5.20;2.10;;;7.10;85.70;;;;;;5047535;28;20413;-78
2022/04/19 00:29:22;;;;;;;5.30;2.28;;;7.00;86.00;;;;;;5048073;28;20036;-79
2022/04/19 00:31:48;;;;;;;3.58;1.80;;;7.00;86.50;;;;;;5047776;28;20021;-78
2022/04/19 00:34:15;;;;;;;2.50;1.70;;;6.90;86.50;;;;;;5047837;28;20028;-78
2022/04/19 00:36:41;;;;;;;6.25;2.22;;;7.00;86.40;;;;;;5051459;28;20025;-79
2022/04/19 00:39:06;;;;;;;5.15;1.88;;;6.90;86.50;;;;;;5046963;28;20017;-79
2022/04/19 00:41:32;;;;;;;3.65;1.73;;;6.90;86.30;;;;;;5049650;28;20503;-79
2022/04/19 00:43:57;;;;;;;3.47;1.90;;;7.00;86.50;;;;;;5049050;28;20408;-79
2022/04/19 00:46:24;;;;;;;3.80;2.08;;;6.90;86.10;;;;;;5048243;28;20796;-78
2022/04/19 00:48:52;;;;;;;3.10;1.80;;;6.90;86.30;;;;;;5045692;28;20156;-78
2022/04/19 00:51:19;;;;;;;3.40;2.17;;;6.80;86.60;;;;;;5049651;28;20393;-79
2022/04/19 00:53:47;;;;;;;3.78;2.28;;;6.70;87.50;;;;;;5047440;28;20036;-78
2022/04/19 00:56:13;;;;;;;8.02;2.65;;;6.70;87.40;;;;;;5048726;28;20056;-78
2022/04/19 00:58:39;;;;;;;4.82;2.15;;;6.70;87.70;;;;;;5046041;28;20105;-79
2022/04/19 01:01:05;;;;;;;4.22;1.90;;;6.60;88.10;;;;;;5049447;28;20053;-78
2022/04/19 01:03:31;;;;;;;2.92;1.90;;;6.60;88.50;;;;;;5044542;28;20039;-77
2022/04/19 01:05:58;;;;;;;3.03;2.00;;;6.50;88.90;;;;;;5047031;28;20124;-79
2022/04/19 01:08:25;;;;;;;6.60;2.35;;;6.40;89.40;;;;;;5049164;28;20021;-78
2022/04/19 01:13:17;;;;;;;3.05;2.00;;;6.40;89.70;;;;;;5046958;28;20222;-78
2022/04/19 01:13:38;;;;;;;3.65;1.95;;;6.40;90.00;;;;;;5048978;28;20035;-79
2022/04/19 01:16:04;;;;;;;4.15;2.08;;;6.40;89.80;;;;;;5047252;28;20017;-78
2022/04/19 01:18:31;;;;;;;3.97;2.03;;;6.40;90.00;;;;;;5045054;28;20029;-78
2022/04/19 01:20:57;;;;;;;5.63;2.05;;;6.40;90.40;;;;;;5047577;28;20112;-79
2022/04/19 01:23:24;;;;;;;4.90;1.95;;;6.30;90.20;;;;;;5050415;28;20124;-79
2022/04/19 01:25:50;;;;;;;4.60;2.22;;;6.30;90.40;;;;;;5047447;28;20428;-78
2022/04/19 01:28:19;;;;;;;3.72;1.85;;;6.30;90.50;;;;;;5048622;28;20029;-78
2022/04/19 01:30:49;;;;;;;4.57;2.42;;;6.30;90.70;;;;;;5046202;28;20029;-80
2022/04/19 01:33:15;;;;;;;7.82;2.28;;;6.20;90.80;;;;;;5044874;28;20033;-79
2022/04/19 01:35:41;;;;;;;5.47;2.50;;;6.20;91.00;;;;;;5045796;28;20032;-78
2022/04/19 01:38:06;;;;;;;3.15;2.17;;;6.20;91.40;;;;;;5048669;28;20078;-78
2022/04/19 01:40:32;;;;;;;5.65;2.38;;;6.10;91.50;;;;;;5049797;28;20021;-79
2022/04/19 01:42:59;;;;;;;8.98;3.03;;;6.00;91.70;;;;;;5046417;28;20562;-78
2022/04/19 01:45:27;;;;;;;5.57;2.47;;;6.00;92.20;;;;;;5045263;28;20021;-79
2022/04/19 01:47:53;;;;;;;4.53;2.58;;;6.00;92.30;;;;;;5046287;28;20028;-79
2022/04/19 01:50:20;;;;;;;4.10;2.17;;;5.90;92.50;;;;;;5041445;28;20131;-77
2022/04/19 01:52:47;;;;;;;4.10;2.58;;;5.90;92.60;;;;;;5043880;28;20036;-79
2022/04/19 01:55:15;;;;;;;6.30;2.35;;;5.80;92.90;;;;;;5048299;28;20036;-79
2022/04/19 01:57:49;;;;;;;2.92;1.67;;;5.90;92.90;;;;;;5048315;28;20028;-78
2022/04/19 02:00:16;;;;;;;4.05;2.40;;;5.80;92.90;;;;;;5048060;28;20017;-79
2022/04/19 02:02:46;;;;;;;4.55;2.33;;;5.80;93.10;;;;;;5043881;28;20024;-79
2022/04/19 02:05:13;;;;;;;3.20;2.10;;;5.80;93.40;;;;;;5046440;28;20013;-77
2022/04/19 02:07:40;;;;;;;4.47;2.78;;;5.70;93.30;;;;;;5061790;28;20025;-78
2022/04/19 02:10:08;;;;;;;7.20;2.78;;;5.80;93.40;;;;;;5047671;28;20078;-78
2022/04/19 02:12:33;;;;;;;4.53;2.55;;;5.80;92.90;;;;;;5046983;28;20032;-78
2022/04/19 02:14:59;;;;;;;5.25;2.38;;;5.80;92.70;;;;;;5048955;28;20021;-79
2022/04/19 02:17:25;;;;;;;4.78;2.45;;;5.90;92.60;;;;;;5047693;28;20025;-79
2022/04/19 02:20:01;;;;;;;4.72;2.10;;;5.90;92.40;;;;;;5044314;28;20048;-79
2022/04/19 02:22:27;;;;;;;3.83;2.40;;;5.90;92.20;;;;;;5048881;28;20024;-78
2022/04/19 02:24:55;;;;;;;5.15;2.50;;;5.90;92.10;;;;;;5044706;28;20051;-79
2022/04/19 02:27:21;;;;;;;4.97;2.55;;;5.90;92.10;;;;;;5049174;28;20032;-79
2022/04/19 02:29:47;;;;;;;4.90;2.20;;;5.90;92.20;;;;;;5044140;28;20135;-78
2022/04/19 02:32:13;;;;;;;5.10;2.50;;;5.80;92.60;;;;;;5047540;28;20800;-79
2022/04/19 02:34:39;;;;;;;6.22;2.80;;;5.80;92.90;;;;;;5049371;28;20025;-79
2022/04/19 02:37:04;;;;;;;4.57;2.47;;;5.80;93.40;;;;;;5049085;28;20094;-79
2022/04/19 02:39:30;;;;;;;5.43;2.35;;;5.70;93.50;;;;;;5052922;28;20033;-79
2022/04/19 02:41:56;;;;;;;6.13;2.67;;;5.80;93.50;;;;;;5049976;28;20136;-78
2022/04/19 02:44:22;;;;;;;4.10;2.45;;;5.70;93.40;;;;;;5054687;28;20036;-78
2022/04/19 02:46:49;;;;;;;5.30;2.45;;;5.70;92.90;;;;;;5048849;28;20033;-78
2022/04/19 02:49:15;;;;;;;3.45;2.22;;;5.70;93.00;;;;;;5050329;28;20040;-78
2022/04/19 02:51:41;;;;;;;4.80;3.00;;;5.70;93.50;;;;;;5045550;28;20033;-78
2022/04/19 02:54:06;;;;;;;4.53;2.40;;;5.60;93.70;;;;;;5049335;28;20036;-79
2022/04/19 02:56:32;;;;;;;3.35;2.10;;;5.60;94.30;;;;;;5049110;28;20078;-79
2022/04/19 02:58:59;;;;;;;4.70;2.45;;;5.60;94.50;;;;;;5045787;28;20112;-79
2022/04/19 03:01:26;;;;;;;6.57;2.83;;;5.50;95.00;;;;;;5045550;28;21058;-79
2022/04/19 03:03:51;;;;;;;3.75;2.53;;;5.50;94.90;;;;;;5049942;28;20032;-79
2022/04/19 03:06:17;;;;;;;5.53;2.50;;;5.40;94.90;;;;;;5047347;28;20028;-79
2022/04/19 03:08:43;;;;;;;6.20;2.63;;;5.50;95.00;;;;;;5051226;28;20032;-78
2022/04/19 03:11:09;;;;;;;4.43;2.92;;;5.40;94.80;;;;;;5050957;28;20039;-79
2022/04/19 03:13:36;;;;;;;6.15;2.83;;;5.40;94.70;;;;;;5051433;28;20033;-79
2022/04/19 03:16:03;;;;;;;4.40;2.22;;;5.40;94.70;;;;;;5046101;28;20119;-79
2022/04/19 03:18:30;;;;;;;6.93;2.58;;;5.40;94.90;;;;;;5045330;28;20050;-78
2022/04/19 03:20:56;;;;;;;6.38;2.55;;;5.40;94.90;;;;;;5048340;28;20052;-78
2022/04/19 03:28:58;;;;;;;5.10;2.65;;;5.30;95.50;;;;;;5033800;28;20033;-78
2022/04/19 03:31:24;;;;;;;5.80;2.40;;;5.20;95.50;;;;;;5044857;28;20607;-78
2022/04/19 03:33:52;;;;;;;4.97;2.85;;;5.30;95.70;;;;;;5050314;28;20555;-77
2022/04/19 03:36:19;;;;;;;4.90;2.70;;;5.20;95.60;;;;;;5049287;28;20028;-79
2022/04/19 03:38:45;;;;;;;3.90;2.30;;;5.20;95.70;;;;;;5049580;28;20048;-77
2022/04/19 03:41:10;;;;;;;7.20;3.22;;;5.20;95.60;;;;;;5052616;28;20067;-79
2022/04/19 03:43:38;;;;;;;6.15;2.75;;;5.20;96.00;;;;;;5046659;28;20025;-79
2022/04/19 03:46:04;;;;;;;4.25;2.33;;;5.20;95.90;;;;;;5047190;28;20040;-79
2022/04/19 03:48:32;;;;;;;5.95;2.65;;;5.20;95.80;;;;;;5046136;28;20106;-79
2022/04/19 03:50:58;;;;;;;8.05;3.42;;;5.20;95.80;;;;;;5047148;28;20031;-78
2022/04/19 03:53:24;;;;;;;4.25;3.00;;;5.20;95.80;;;;;;5047788;28;20107;-78
2022/04/19 03:55:49;;;;;;;5.15;2.88;;;5.20;95.90;;;;;;5051285;28;20079;-79
2022/04/19 03:58:16;;;;;;;7.65;3.15;;;5.20;96.10;;;;;;5049118;28;20029;-79
2022/04/19 04:00:41;;;;;;;5.53;2.88;;;5.10;96.10;;;;;;5048812;28;20033;-79
2022/04/19 04:03:08;;;;;;;7.25;3.50;;;5.10;96.30;;;;;;5047672;28;20954;-79
2022/04/19 04:05:34;;;;;;;7.82;2.80;;;5.10;96.40;;;;;;5050110;28;20543;-78
2022/04/19 04:07:59;;;;;;;6.72;2.80;;;5.00;96.80;;;;;;5047027;28;20021;-79
2022/04/19 04:10:25;;;;;;;5.18;2.65;;;5.10;96.80;;;;;;5049789;28;20466;-79
2022/04/19 04:12:51;;;;;;;5.20;3.20;;;5.10;96.80;;;;;;5048134;28;20035;-78
2022/04/19 04:15:17;;;;;;;4.43;2.53;;;5.00;96.70;;;;;;5048304;28;20108;-78
2022/04/19 04:17:43;;;;;;;8.07;3.13;;;5.00;96.80;;;;;;5045352;28;20021;-78
2022/04/19 04:20:09;;;;;;;9.18;3.25;;;5.00;96.90;;;;;;5044450;28;20039;-79
2022/04/19 04:22:35;;;;;;;5.72;2.88;;;4.90;97.00;;;;;;5036975;28;20107;-80
2022/04/19 04:25:02;;;;;;;4.57;2.85;;;4.90;97.10;;;;;;5043432;28;20033;-80
2022/04/19 04:27:27;;;;;;;7.75;3.47;;;4.90;97.30;;;;;;5046221;28;20552;-79
2022/04/19 04:29:53;;;;;;;5.10;2.85;;;4.90;97.70;;;;;;5044029;28;20086;-81
2022/04/19 04:32:19;;;;;;;6.93;3.08;;;4.80;97.60;;;;;;5039573;28;20511;-79
2022/04/19 04:34:44;;;;;;;4.95;2.78;;;4.80;97.60;;;;;;5042352;28;20912;-79
2022/04/19 04:37:10;;;;;;;5.30;3.03;;;4.80;97.60;;;;;;5042133;28;20508;-79
2022/04/19 04:39:37;;;;;;;7.55;3.30;;;4.90;97.80;;;;;;5045048;28;20063;-80
2022/04/19 04:42:03;;;;;;;4.57;2.50;;;4.90;97.60;;;;;;5046105;28;20104;-79
2022/04/19 04:44:29;;;;;;;6.28;2.97;;;4.80;97.40;;;;;;5048989;28;20103;-79
2022/04/19 04:49:39;;;;;;;6.10;2.65;;;4.90;99.50;;;;;;5047334;28;20043;-78
2022/04/19 04:52:07;;;;;;;5.63;2.65;;;4.90;99.90;;;;;;5046124;28;20033;-78
2022/04/19 04:54:34;;;;;;;6.13;2.83;;;4.90;99.90;;;;;;5040188;28;20035;-78
2022/04/19 04:57:00;;;;;;;5.57;2.70;;;4.80;99.90;;;;;;5041150;28;20031;-77
2022/04/19 04:59:26;;;;;;;8.68;2.78;;;4.80;99.90;;;;;;5043580;28;20033;-78
2022/04/19 05:01:52;;;;;;;6.10;2.95;;;4.80;99.90;;;;;;5044408;28;20040;-77
2022/04/19 05:04:17;;;;;;;6.00;2.72;;;4.80;99.90;;;;;;5046810;28;20024;-77
2022/04/19 05:06:43;;;;;;;5.07;2.80;;;4.90;99.90;;;;;;5046987;28;20048;-79
2022/04/19 05:09:09;;;;;;;7.90;3.47;;;4.90;99.90;;;;;;5047106;28;20033;-79
2022/04/19 05:11:34;;;;;;;6.90;3.13;;;4.90;99.30;;;;;;5045344;28;20052;-80
2022/04/19 05:14:00;;;;;;;5.85;2.92;;;5.00;98.90;;;;;;5042346;28;20434;-78
2022/04/19 05:16:25;;;;;;;11.38;3.80;;;5.00;98.80;;;;;;5048475;28;20040;-77
2022/04/19 05:18:51;;;;;;;6.22;3.85;;;5.00;98.50;;;;;;5045278;28;20052;-77
2022/04/19 05:21:17;;;;;;;6.88;3.30;;;5.10;98.30;;;;;;5046634;28;20059;-78
2022/04/19 05:23:42;;;;;;;5.50;3.03;;;5.20;98.10;;;;;;5045628;28;20052;-77
2022/04/19 05:26:08;;;;;;;7.13;3.10;;;5.20;97.70;;;;;;5051861;28;20025;-78
2022/04/19 05:28:34;;;;;;;6.60;3.60;;;5.30;97.50;;;;;;5049581;28;20078;-78
2022/04/19 05:30:59;;;;;;;6.70;3.38;;;5.30;97.60;;;;;;5041942;28;20033;-79
2022/04/19 05:33:25;;;;;;;6.05;3.58;;;5.40;97.30;;;;;;5041390;28;20036;-78
2022/04/19 05:35:51;;;;;;;9.15;3.63;;;5.60;96.90;;;;;;5048293;28;20120;-79
2022/04/19 05:38:17;;;;;;;9.85;3.35;;;5.70;96.50;;;;;;5044849;28;20436;-79
2022/04/19 05:40:43;;;;;;;5.10;3.15;;;5.90;96.40;;;;;;5037891;28;20109;-77
2022/04/19 05:43:08;;;;;;;6.43;2.97;;;6.10;97.20;;;;;;5046798;28;20085;-77
2022/04/19 05:45:34;;;;;;;8.23;3.40;;;6.20;97.10;;;;;;5047099;28;20025;-80
2022/04/19 05:48:00;;;;;;;9.57;3.17;;;6.50;96.80;;;;;;5047256;28;20028;-79
2022/04/19 05:50:26;;;;;;;6.93;2.95;;;6.60;96.30;;;;;;5046222;28;20032;-84
2022/04/19 05:52:52;;;;;;;8.45;3.65;;;6.80;96.20;;;;;;5040877;28;20021;-80
2022/04/19 05:55:17;;;;;;;5.35;2.72;;;7.00;95.50;;;;;;5045342;28;20515;-79
2022/04/19 05:57:44;;;;;;;6.50;2.95;;;7.20;94.60;;;;;;5041601;28;20086;-81
2022/04/19 06:00:09;;;;;;;8.18;3.30;;;7.30;93.60;;;;;;5042197;28;20040;-78
2022/04/19 06:05:20;;;;;;;14.27;4.30;;;7.40;94.00;;;;;;5038862;28;20076;-81
2022/04/19 06:07:47;;;;;;;5.82;3.30;;;7.50;93.80;;;;;;5053339;28;20032;-79
2022/04/19 06:10:14;;;;;;;5.78;3.40;;;7.60;93.30;;;;;;5034281;28;20029;-79
2022/04/19 06:12:40;;;;;;;9.30;3.50;;;7.60;93.40;;;;;;5039307;28;20021;-85
2022/04/19 06:15:07;;;;;;;7.07;3.45;;;7.70;93.10;;;;;;5038831;28;20025;-81
2022/04/19 06:17:35;;;;;;;6.68;3.50;;;7.80;92.90;;;;;;5039490;28;20033;-81
2022/04/19 06:20:01;;;;;;;6.43;3.72;;;7.80;92.50;;;;;;5045675;28;20021;-83
2022/04/19 06:22:27;;;;;;;6.82;3.45;;;7.80;92.40;;;;;;5042303;28;20024;-83
2022/04/19 06:24:56;;;;;;;6.22;3.85;;;7.80;92.00;;;;;;5043360;28;20032;-87
2022/04/19 06:27:22;;;;;;;10.13;3.83;;;7.90;91.90;;;;;;5046521;28;20044;-80
2022/04/19 06:29:50;;;;;;;11.63;4.45;;;8.00;91.90;;;;;;5043424;28;20139;-81
2022/04/19 06:32:15;;;;;;;11.18;4.55;;;8.00;91.60;;;;;;5043485;28;20039;-82
2022/04/19 06:34:41;;;;;;;12.05;4.72;;;8.10;91.40;;;;;;5046118;28;20037;-84
2022/04/19 06:37:07;;;;;;;7.10;3.92;;;8.10;91.30;;;;;;5044732;28;20658;-81
2022/04/19 06:39:33;;;;;;;7.70;4.63;;;8.10;91.40;;;;;;5024371;28;20116;-82
2022/04/19 06:41:59;;;;;;;8.90;4.25;;;8.10;91.30;;;;;;5077479;23;20051;-68
2022/04/19 06:44:24;;;;;;;9.70;4.38;;;8.20;91.40;;;;;;5037614;28;20029;-68
2022/04/19 06:46:50;;;;;;;8.63;3.33;;;8.20;91.40;;;;;;5044829;28;21254;-68
2022/04/19 06:49:19;;;;;;;9.23;4.40;;;8.30;91.80;;;;;;5044074;28;20243;-68
2022/04/19 06:51:49;;;;;;;10.40;3.88;;;8.30;91.90;;;;;;5026442;28;20030;-69
2022/04/19 06:54:15;;;;;;;9.13;4.35;;;8.30;92.00;;;;;;5025345;28;20371;-68
2022/04/19 06:56:42;;;;;;;11.48;5.30;;;8.40;91.90;;;;;;5023526;28;20040;-68
2022/04/19 06:59:08;;;;;;;7.50;4.43;;;8.40;92.10;;;;;;5027558;28;20112;-69
2022/04/19 07:01:39;;;;;;;9.65;4.55;;;8.30;92.40;;;;;;5021309;28;20033;-68
2022/04/19 07:04:05;;;;;;;8.30;3.63;;;8.20;92.20;;;;;;5045495;28;20470;-68
2022/04/19 07:06:34;;;;;;;12.85;4.28;;;8.20;92.30;;;;;;5021225;28;20036;-68
2022/04/19 07:09:00;;;;;;;7.30;3.70;;;8.20;92.30;;;;;;5027763;28;20044;-68
2022/04/19 07:11:26;;;;;;;9.00;4.03;;;8.20;92.30;;;;;;5022038;28;20033;-68
2022/04/19 07:13:52;;;;;;;9.32;3.65;;;8.10;92.20;;;;;;5019441;28;20033;-68
2022/04/19 07:16:18;;;;;;;8.45;3.30;;;8.10;92.00;;;;;;5022069;28;20040;-68
2022/04/19 07:18:43;;;;;;;6.38;3.95;;;8.10;92.10;;;;;;5025027;28;20030;-69
2022/04/19 07:26:47;;;;;;;6.95;3.33;;;8.30;92.20;;;;;;5028785;28;20141;-69
2022/04/19 07:29:15;;;;;;;6.97;3.50;;;8.40;91.90;;;;;;5032570;28;20033;-69
2022/04/19 07:31:43;;;;;;;7.82;4.00;;;8.50;91.80;;;;;;5028959;28;20041;-69
2022/04/19 07:34:09;;;;;;;9.43;4.30;;;8.60;91.70;;;;;;5025558;28;20474;-69
2022/04/19 07:36:37;;;;;;;9.88;3.30;;;8.70;91.50;;;;;;5031731;28;20182;-70
2022/04/19 07:39:06;;;;;;;6.47;3.70;;;8.80;90.60;;;;;;5034869;28;20017;-68
2022/04/19 07:41:37;;;;;;;7.13;2.95;;;8.90;90.10;;;;;;5045570;28;20047;-69
2022/04/19 07:44:08;;;;;;;9.88;3.15;;;9.00;89.80;;;;;;5027258;28;20066;-69
2022/04/19 07:46:35;;;;;;;7.68;3.40;;;9.10;89.20;;;;;;5025216;28;20120;-69
2022/04/19 07:49:07;;;;;;;6.20;3.55;;;9.30;88.30;;;;;;5039737;28;20048;-69
2022/04/19 07:51:35;;;;;;;7.10;3.28;;;9.40;87.50;;;;;;5027791;28;20534;-69
2022/04/19 07:54:01;;;;;;;6.10;3.03;;;9.60;86.50;;;;;;5026723;28;20022;-69
2022/04/19 07:56:27;;;;;;;6.35;3.25;;;9.70;86.10;;;;;;5031110;28;20099;-69
2022/04/19 07:58:53;;;;;;;5.65;3.20;;;9.80;86.00;;;;;;5055532;28;20028;-69
2022/04/19 08:01:19;;;;;;;5.68;3.70;;;9.90;85.40;;;;;;5031939;28;20022;-69
2022/04/19 08:03:45;;;;;;;6.22;3.70;;;10.00;85.20;;;;;;5042451;28;20021;-69
2022/04/19 08:06:12;;;;;;;9.20;3.83;;;10.10;85.00;;;;;;5027344;28;20086;-69
2022/04/19 08:08:38;;;;;;;8.38;3.97;;;10.10;84.70;;;;;;5028758;28;20037;-69
2022/04/19 08:11:04;;;;;;;5.72;3.28;;;10.20;85.00;;;;;;5039166;28;20040;-69
2022/04/19 08:13:30;;;;;;;6.43;3.90;;;10.30;84.60;;;;;;5022827;28;20112;-70
2022/04/19 08:15:56;;;;;;;9.38;4.45;;;10.40;84.20;;;;;;5032762;28;20033;-70
2022/04/19 08:18:22;;;;;;;8.18;3.83;;;10.50;84.00;;;;;;5046478;28;20060;-69
2022/04/19 08:20:50;;;;;;;7.28;3.75;;;10.50;83.70;;;;;;5033437;28;20490;-69
2022/04/19 08:23:15;;;;;;;6.97;3.80;;;10.60;83.40;;;;;;5026789;28;20037;-69
2022/04/19 08:25:43;;;;;;;6.13;3.70;;;10.70;83.10;;;;;;5028769;28;20171;-70
2022/04/19 08:28:09;;;;;;;8.00;4.05;;;10.80;82.70;;;;;;5031776;28;20026;-69
2022/04/19 08:30:35;;;;;;;5.82;3.65;;;10.80;81.90;;;;;;5034873;28;20036;-69
2022/04/19 08:33:00;;;;;;;7.35;4.50;;;10.90;82.10;;;;;;5027274;28;20028;-69
2022/04/19 08:35:26;;;;;;;8.48;4.20;;;11.00;81.80;;;;;;5032801;28;20025;-70
2022/04/19 08:37:52;;;;;;;7.03;4.25;;;11.10;81.50;;;;;;5031623;28;20025;-70
2022/04/19 08:40:19;;;;;;;6.70;4.18;;;11.10;80.40;;;;;;5032179;28;20044;-70
2022/04/19 08:42:45;;;;;;;8.00;4.35;;;11.20;80.10;;;;;;5022799;28;20575;-69
2022/04/19 08:45:15;;;;;;;7.53;4.25;;;11.30;78.40;;;;;;5023602;28;20029;-69
2022/04/19 08:47:47;;;;;;;5.90;3.58;;;11.40;76.80;;;;;;5031725;28;20032;-69
2022/04/19 08:50:18;;;;;;;7.40;4.28;;;11.50;76.40;;;;;;5034249;28;20030;-69
2022/04/19 08:52:46;;;;;;;6.32;3.65;;;11.60;74.70;;;;;;5024447;28;20088;-70
2022/04/19 08:57:56;;;;;;;7.82;3.65;;;11.70;75.00;;;;;;5025741;28;20119;-70
2022/04/19 09:00:24;;;;;;;6.65;3.88;;;11.80;74.20;;;;;;5025104;28;20171;-71
2022/04/19 09:02:51;;;;;;;8.65;4.53;;;11.90;73.60;;;;;;5021248;28;20068;-71
2022/04/19 09:05:18;;;;;;;7.65;4.10;;;12.00;73.20;;;;;;5040161;28;20029;-71
2022/04/19 09:07:45;;;;;;;8.35;4.72;;;12.00;72.90;;;;;;5031723;28;20037;-71
2022/04/19 09:10:16;;;;;;;6.65;4.07;;;12.00;71.90;;;;;;5024149;28;20037;-70
2022/04/19 09:13:04;;;;;;;7.20;4.13;;;12.10;71.30;;;;;;5025431;28;20140;-69
2022/04/19 09:15:36;;;;;;;6.35;4.05;;;12.20;70.50;;;;;;5028824;28;20460;-70
2022/04/19 09:18:02;;;;;;;8.38;4.20;;;12.30;70.60;;;;;;5027035;28;20100;-70
2022/04/19 09:20:28;;;;;;;8.55;4.55;;;12.40;70.40;;;;;;5020037;28;20026;-69
2022/04/19 09:23:04;;;;;;;7.63;4.05;;;12.40;69.60;;;;;;5025992;28;20032;-70
2022/04/19 09:25:32;;;;;;;7.55;3.90;;;12.50;68.70;;;;;;5021895;28;20792;-71
2022/04/19 09:27:58;;;;;;;7.57;3.33;;;12.50;68.70;;;;;;5008327;28;20030;-70
2022/04/19 09:30:37;;;;;;;8.43;3.60;;;12.60;68.30;;;;;;5030169;28;20114;-70
2022/04/19 09:33:16;;;;;;;6.70;3.92;;;12.60;68.10;;;;;;5021202;28;20025;-71
2022/04/19 09:35:45;;;;;;;6.75;3.53;;;12.70;67.80;;;;;;5019358;28;20037;-71
2022/04/19 09:38:12;;;;;;;6.63;3.65;;;12.80;66.90;;;;;;5041546;28;20033;-70
2022/04/19 09:40:39;;;;;;;7.72;3.97;;;12.90;66.50;;;;;;5023215;28;20029;-70
2022/04/19 09:43:25;;;;;;;6.47;3.15;;;13.10;66.20;;;;;;5028224;28;20112;-70
2022/04/19 09:45:58;;;;;;;5.78;3.00;;;13.20;65.80;;;;;;5020387;28;21568;-69
2022/04/19 09:48:42;;;;;;;8.00;3.00;;;13.30;65.10;;;;;;5027262;28;20033;-71
2022/04/19 09:51:10;;;;;;;6.30;3.13;;;13.40;64.60;;;;;;5023905;28;20021;-69
2022/04/19 09:53:42;;;;;;;8.23;3.38;;;13.40;64.00;;;;;;5027099;28;20109;-69
2022/04/19 09:56:09;;;;;;;6.78;3.20;;;13.30;64.10;;;;;;5023870;28;20025;-70
2022/04/19 09:58:37;;;;;;;6.82;2.80;;;13.30;64.10;;;;;;5024025;28;20033;-70
2022/04/19 10:01:04;;;;;;;8.85;4.07;;;13.50;62.90;;;;;;5028869;28;20714;-70
2022/04/19 10:09:04;;;;;;;5.10;1.83;;;13.70;62.70;;;;;;5027441;28;20099;-71
2022/04/19 10:11:30;;;;;;;3.83;2.03;;;13.70;60.90;;;;;;5022425;28;20385;-70
2022/04/19 10:13:56;;;;;;;4.30;2.03;;;13.70;60.00;;;;;;5041886;28;20060;-70
2022/04/19 10:16:23;;;;;;;6.20;2.50;;;13.80;60.70;;;;;;5028721;28;20442;-70
2022/04/19 10:18:49;;;;;;;3.10;2.10;;;13.80;61.90;;;;;;5032602;28;20030;-70
2022/04/19 10:21:21;;;;;;;3.63;1.63;;;13.90;59.70;;;;;;5025428;28;20112;-70
2022/04/19 10:23:48;;;;;;;3.38;1.63;;;13.90;57.20;;;;;;5023922;28;20071;-70
2022/04/19 10:26:23;;;;;;;4.03;1.88;;;13.90;57.80;;;;;;5024799;28;20112;-70
2022/04/19 10:28:52;;;;;;;4.95;1.70;;;14.00;57.40;;;;;;5022908;28;20030;-70
2022/04/19 10:31:35;;;;;;;6.22;2.22;;;14.10;57.20;;;;;;5024330;28;20032;-70
2022/04/19 10:34:02;;;;;;;3.97;2.28;;;14.10;58.70;;;;;;5029443;28;20029;-69
2022/04/19 10:36:39;;;;;;;4.38;2.38;;;14.20;57.20;;;;;;5031737;28;20460;-69
2022/04/19 10:39:17;;;;;;;4.65;2.08;;;14.20;57.90;;;;;;5020381;28;20137;-70
2022/04/19 10:42:05;;;;;;;4.65;2.55;;;14.30;57.80;;;;;;5028659;28;20385;-70
2022/04/19 10:44:36;;;;;;;5.55;2.70;;;14.20;57.80;;;;;;5028116;28;20068;-71
2022/04/19 10:47:16;;;;;;;6.55;2.83;;;14.20;58.60;;;;;;5025586;28;20525;-71
2022/04/19 10:50:03;;;;;;;4.45;2.28;;;14.30;59.10;;;;;;5024157;28;20405;-71
2022/04/19 10:52:44;;;;;;;5.20;2.45;;;14.40;57.90;;;;;;5026546;28;20029;-71
2022/04/19 10:55:14;;;;;;;8.13;3.00;;;14.40;58.90;;;;;;5033473;28;20029;-71
2022/04/19 11:00:30;;;;;;;3.65;1.95;;;14.70;58.60;;;;;;5029818;28;20095;-71
2022/04/19 11:03:03;;;;;;;4.95;2.60;;;14.70;58.30;;;;;;5025483;28;20367;-71
2022/04/19 11:05:50;;;;;;;3.95;2.40;;;14.70;57.90;;;;;;5027566;28;20117;-71
2022/04/19 11:08:31;;;;;;;10.88;2.88;;;14.80;57.80;;;;;;5026353;28;20022;-71
2022/04/19 11:11:02;;;;;;;5.97;2.97;;;14.80;57.90;;;;;;5030818;28;20112;-71
2022/04/19 11:13:35;;;;;;;8.23;2.58;;;14.90;57.60;;;;;;5023885;28;20616;-71
2022/04/19 11:16:07;;;;;;;4.80;2.70;;;15.00;56.70;;;;;;5026442;28;20033;-70
2022/04/19 11:18:34;;;;;;;4.82;2.58;;;15.00;57.20;;;;;;5045850;28;20025;-70
2022/04/19 11:21:02;;;;;;;6.95;3.20;;;14.90;57.60;;;;;;5036266;28;20096;-70
2022/04/19 11:23:29;;;;;;;8.20;2.95;;;15.00;57.90;;;;;;5026773;28;20025;-71
2022/04/19 11:25:55;;;;;;;6.05;3.15;;;14.90;57.80;;;;;;5029083;28;20033;-70
2022/04/19 11:28:29;;;;;;;6.90;2.53;;;15.00;58.20;;;;;;5029541;28;20037;-71
2022/04/19 11:31:00;;;;;;;5.90;2.97;;;15.10;57.50;;;;;;5028783;28;20421;-71
2022/04/19 11:33:28;;;;;;;6.85;3.00;;;15.10;57.30;;;;;;5028142;28;20104;-71
2022/04/19 11:36:15;;;;;;;6.97;2.72;;;15.10;57.10;;;;;;5030224;28;20037;-71
2022/04/19 11:38:46;;;;;;;4.25;2.63;;;15.00;56.90;;;;;;5029420;28;20033;-71
2022/04/19 11:46:45;;;;;;;5.82;2.60;;;15.20;55.90;;;;;;5024305;28;20390;-71
2022/04/19 11:49:11;;;;;;;4.75;2.78;;;15.30;55.30;;;;;;5032421;28;20040;-72
2022/04/19 11:51:37;;;;;;;9.95;3.45;;;15.30;54.80;;;;;;5020593;28;20112;-71
2022/04/19 11:54:08;;;;;;;31.88;13.55;;;15.40;54.60;;;;;;5021697;28;20531;-70
2022/04/19 11:56:34;;;;;;;6.47;3.22;;;15.40;54.00;;;;;;5028273;28;20036;-71
2022/04/19 11:59:01;;;;;;;6.07;3.33;;;15.50;53.90;;;;;;5026187;28;20021;-70
2022/04/19 12:01:28;;;;;;;5.57;2.67;;;15.40;53.40;;;;;;5018892;28;20048;-70
2022/04/19 12:03:54;;;;;;;5.88;3.55;;;15.40;54.10;;;;;;5024479;28;20045;-71
2022/04/19 12:06:23;;;;;;;8.82;2.47;;;15.40;53.60;;;;;;5030577;28;20442;-70
2022/04/19 12:08:53;;;;;;;9.60;3.50;;;15.30;54.00;;;;;;5027062;28;20512;-70
2022/04/19 12:11:26;;;;;;;7.18;3.30;;;15.40;53.70;;;;;;5031275;28;20496;-71
2022/04/19 12:13:58;;;;;;;5.50;3.22;;;15.40;53.50;;;;;;5030253;28;20119;-71
2022/04/19 12:16:42;;;;;;;7.35;3.50;;;15.50;53.60;;;;;;5029692;28;20529;-70
2022/04/19 12:19:09;;;;;;;6.68;3.17;;;15.40;54.30;;;;;;5030119;28;20025;-71
2022/04/19 12:21:38;;;;;;;5.57;2.75;;;15.50;53.80;;;;;;5029358;28;20037;-70
2022/04/19 12:24:06;;;;;;;7.68;3.00;;;15.60;54.00;;;;;;5027577;28;20022;-70
2022/04/19 12:26:36;;;;;;;6.40;3.08;;;15.70;54.90;;;;;;5023372;28;20045;-70
2022/04/19 12:29:14;;;;;;;7.97;3.25;;;15.70;53.10;;;;;;5024610;28;20026;-70
2022/04/19 12:31:47;;;;;;;10.18;3.72;;;15.70;53.60;;;;;;5025808;28;20032;-70
2022/04/19 12:34:16;;;;;;;5.82;3.40;;;15.70;53.10;;;;;;5028418;28;20758;-70
2022/04/19 12:36:50;;;;;;;6.53;2.95;;;15.70;52.90;;;;;;5027566;28;20394;-69
2022/04/19 12:39:21;;;;;;;5.82;3.13;;;15.60;52.90;;;;;;5022697;28;20029;-69
2022/04/19 12:41:49;;;;;;;5.93;3.25;;;15.60;53.20;;;;;;5023968;28;20029;-70
2022/04/19 12:44:17;;;;;;;5.05;2.92;;;15.60;52.70;;;;;;5021380;28;20544;-70
2022/04/19 12:46:49;;;;;;;4.18;2.58;;;15.70;51.60;;;;;;5019866;28;20131;-69
2022/04/19 12:49:44;;;;;;;8.35;3.33;;;15.70;51.30;;;;;;5027596;28;21047;-70
2022/04/19 12:52:11;;;;;;;4.85;2.92;;;15.70;51.60;;;;;;5028806;28;20040;-69
2022/04/19 12:54:39;;;;;;;5.00;2.97;;;15.70;51.20;;;;;;5025149;28;20033;-69
2022/04/19 12:57:18;;;;;;;3.92;2.35;;;15.70;50.90;;;;;;5087296;22;20382;-74
2022/04/19 12:59:47;;;;;;;4.30;2.60;;;15.70;51.10;;;;;;5048451;28;20355;-76
2022/04/19 13:02:22;;;;;;;5.07;2.97;;;15.70;51.10;;;;;;5045184;28;20033;-76
2022/04/19 13:04:49;;;;;;;6.47;3.55;;;15.60;51.40;;;;;;5048047;28;20017;-76
2022/04/19 13:12:54;;;;;;;6.15;3.33;;;15.80;51.10;;;;;;5042646;28;20139;-76
2022/04/19 13:15:19;;;;;;;4.45;2.47;;;15.80;50.80;;;;;;5042560;28;20029;-75
2022/04/19 13:17:45;;;;;;;6.05;3.55;;;15.70;51.30;;;;;;5044205;28;20033;-73
2022/04/19 13:20:13;;;;;;;5.63;2.90;;;15.80;51.10;;;;;;5044473;28;20024;-75
2022/04/19 13:22:39;;;;;;;4.82;2.78;;;15.90;50.80;;;;;;5040185;28;20028;-72
2022/04/19 13:25:07;;;;;;;5.45;2.90;;;15.90;50.90;;;;;;5043472;28;20075;-73
2022/04/19 13:27:36;;;;;;;6.45;2.65;;;15.90;50.70;;;;;;5055295;28;20037;-73
2022/04/19 13:30:13;;;;;;;5.03;3.08;;;15.90;51.10;;;;;;5048315;28;20063;-74
2022/04/19 13:32:39;;;;;;;5.47;2.83;;;16.00;50.20;;;;;;5039759;28;20035;-74
2022/04/19 13:35:06;;;;;;;4.38;2.80;;;16.00;50.00;;;;;;5046092;28;20028;-74